<?xml version="1.0" encoding="UTF-8" standalone="no" ?>
<gpx xmlns="http://www.topografix.com/GPX/1/1" xmlns:xsi="http://www.w3.org/2001/XMLSchema-instance" xsi:schemaLocation="http://www.topografix.com/GPX/1/1 http://www.topografix.com/GPX/1/1/gpx.xsd" version="1.1" creator="VisuGPX - https://www.visugpx.com">
  <metadata>
    <name>TAHITI - PEDESTRE - Papeete - La mission</name>
    <desc><![CDATA[Une première pour nous, toujours une sortie d'adaptation]]></desc>
  </metadata>
  <trk>
    <name><![CDATA[ACTIVE LOG 002]]></name>
    <trkseg>
      <trkpt lat="-17.53721" lon="-149.54861">
        <ele>107.805054</ele>
        <time>2012-05-08T18:02:48Z</time>
      </trkpt>
      <trkpt lat="-17.53721" lon="-149.54861">
        <ele>107.805054</ele>
        <time>2012-05-08T18:02:49Z</time>
      </trkpt>
    </trkseg>
  </trk>
  <trk>
    <name><![CDATA[ACTIVE LOG 003]]></name>
    <trkseg>
      <trkpt lat="-17.54844" lon="-149.55596">
        <ele>108.766235</ele>
        <time>2012-05-08T18:03:04Z</time>
      </trkpt>
      <trkpt lat="-17.54846" lon="-149.55596">
        <ele>108.766235</ele>
        <time>2012-05-08T18:03:06Z</time>
      </trkpt>
      <trkpt lat="-17.54857" lon="-149.55595">
        <ele>112.611572</ele>
        <time>2012-05-08T18:03:15Z</time>
      </trkpt>
      <trkpt lat="-17.54862" lon="-149.55595">
        <ele>115.014893</ele>
        <time>2012-05-08T18:03:21Z</time>
      </trkpt>
      <trkpt lat="-17.54869" lon="-149.55598">
        <ele>119.34082</ele>
        <time>2012-05-08T18:03:28Z</time>
      </trkpt>
      <trkpt lat="-17.5487" lon="-149.55598">
        <ele>118.860107</ele>
        <time>2012-05-08T18:03:29Z</time>
      </trkpt>
      <trkpt lat="-17.54871" lon="-149.55592">
        <ele>122.224731</ele>
        <time>2012-05-08T18:03:36Z</time>
      </trkpt>
      <trkpt lat="-17.54872" lon="-149.55591">
        <ele>123.666748</ele>
        <time>2012-05-08T18:03:38Z</time>
      </trkpt>
      <trkpt lat="-17.54875" lon="-149.55591">
        <ele>127.031372</ele>
        <time>2012-05-08T18:03:43Z</time>
      </trkpt>
      <trkpt lat="-17.54876" lon="-149.55593">
        <ele>127.511963</ele>
        <time>2012-05-08T18:03:44Z</time>
      </trkpt>
      <trkpt lat="-17.5488" lon="-149.55614">
        <ele>131.837891</ele>
        <time>2012-05-08T18:03:49Z</time>
      </trkpt>
      <trkpt lat="-17.54882" lon="-149.55615">
        <ele>135.202515</ele>
        <time>2012-05-08T18:03:52Z</time>
      </trkpt>
      <trkpt lat="-17.5488" lon="-149.55612">
        <ele>136.644653</ele>
        <time>2012-05-08T18:03:54Z</time>
      </trkpt>
      <trkpt lat="-17.54884" lon="-149.55624">
        <ele>139.047852</ele>
        <time>2012-05-08T18:03:57Z</time>
      </trkpt>
      <trkpt lat="-17.54894" lon="-149.55634">
        <ele>142.893066</ele>
        <time>2012-05-08T18:04:05Z</time>
      </trkpt>
      <trkpt lat="-17.54897" lon="-149.55628">
        <ele>143.85437</ele>
        <time>2012-05-08T18:04:09Z</time>
      </trkpt>
      <trkpt lat="-17.54902" lon="-149.55618">
        <ele>144.335205</ele>
        <time>2012-05-08T18:04:15Z</time>
      </trkpt>
      <trkpt lat="-17.54909" lon="-149.55614">
        <ele>145.7771</ele>
        <time>2012-05-08T18:04:19Z</time>
      </trkpt>
      <trkpt lat="-17.54916" lon="-149.5561">
        <ele>146.257812</ele>
        <time>2012-05-08T18:04:24Z</time>
      </trkpt>
      <trkpt lat="-17.54934" lon="-149.55602">
        <ele>149.141602</ele>
        <time>2012-05-08T18:04:39Z</time>
      </trkpt>
      <trkpt lat="-17.54945" lon="-149.55593">
        <ele>151.064209</ele>
        <time>2012-05-08T18:04:50Z</time>
      </trkpt>
      <trkpt lat="-17.54949" lon="-149.55591">
        <ele>152.025757</ele>
        <time>2012-05-08T18:04:54Z</time>
      </trkpt>
      <trkpt lat="-17.54951" lon="-149.5559">
        <ele>152.506348</ele>
        <time>2012-05-08T18:04:56Z</time>
      </trkpt>
      <trkpt lat="-17.54966" lon="-149.55578">
        <ele>154.428955</ele>
        <time>2012-05-08T18:05:11Z</time>
      </trkpt>
      <trkpt lat="-17.54973" lon="-149.55573">
        <ele>156.351562</ele>
        <time>2012-05-08T18:05:20Z</time>
      </trkpt>
      <trkpt lat="-17.5498" lon="-149.55567">
        <ele>156.832153</ele>
        <time>2012-05-08T18:05:28Z</time>
      </trkpt>
      <trkpt lat="-17.54987" lon="-149.55561">
        <ele>157.312866</ele>
        <time>2012-05-08T18:05:37Z</time>
      </trkpt>
      <trkpt lat="-17.54996" lon="-149.55554">
        <ele>158.754761</ele>
        <time>2012-05-08T18:05:48Z</time>
      </trkpt>
      <trkpt lat="-17.55004" lon="-149.55544">
        <ele>160.196899</ele>
        <time>2012-05-08T18:05:57Z</time>
      </trkpt>
      <trkpt lat="-17.5501" lon="-149.55539">
        <ele>159.716187</ele>
        <time>2012-05-08T18:06:17Z</time>
      </trkpt>
      <trkpt lat="-17.55014" lon="-149.55531">
        <ele>161.638916</ele>
        <time>2012-05-08T18:06:29Z</time>
      </trkpt>
      <trkpt lat="-17.55014" lon="-149.5553">
        <ele>161.638916</ele>
        <time>2012-05-08T18:06:30Z</time>
      </trkpt>
      <trkpt lat="-17.55018" lon="-149.55527">
        <ele>161.638916</ele>
        <time>2012-05-08T18:06:34Z</time>
      </trkpt>
      <trkpt lat="-17.55036" lon="-149.55519">
        <ele>164.522705</ele>
        <time>2012-05-08T18:06:49Z</time>
      </trkpt>
      <trkpt lat="-17.55044" lon="-149.55517">
        <ele>165.964722</ele>
        <time>2012-05-08T18:06:55Z</time>
      </trkpt>
      <trkpt lat="-17.55051" lon="-149.55515">
        <ele>166.926025</ele>
        <time>2012-05-08T18:07:00Z</time>
      </trkpt>
      <trkpt lat="-17.55072" lon="-149.5552">
        <ele>169.810059</ele>
        <time>2012-05-08T18:07:19Z</time>
      </trkpt>
      <trkpt lat="-17.55079" lon="-149.55521">
        <ele>172.213257</ele>
        <time>2012-05-08T18:07:26Z</time>
      </trkpt>
      <trkpt lat="-17.55082" lon="-149.55521">
        <ele>172.69397</ele>
        <time>2012-05-08T18:07:29Z</time>
      </trkpt>
      <trkpt lat="-17.55089" lon="-149.55519">
        <ele>173.655273</ele>
        <time>2012-05-08T18:07:35Z</time>
      </trkpt>
      <trkpt lat="-17.55093" lon="-149.55518">
        <ele>174.616577</ele>
        <time>2012-05-08T18:07:38Z</time>
      </trkpt>
      <trkpt lat="-17.5511" lon="-149.55513">
        <ele>176.058594</ele>
        <time>2012-05-08T18:07:57Z</time>
      </trkpt>
      <trkpt lat="-17.55118" lon="-149.55509">
        <ele>177.50061</ele>
        <time>2012-05-08T18:08:04Z</time>
      </trkpt>
      <trkpt lat="-17.55132" lon="-149.55505">
        <ele>180.384521</ele>
        <time>2012-05-08T18:08:17Z</time>
      </trkpt>
      <trkpt lat="-17.55141" lon="-149.55501">
        <ele>181.826416</ele>
        <time>2012-05-08T18:08:27Z</time>
      </trkpt>
      <trkpt lat="-17.55155" lon="-149.55487">
        <ele>183.268433</ele>
        <time>2012-05-08T18:08:46Z</time>
      </trkpt>
      <trkpt lat="-17.55159" lon="-149.55487">
        <ele>185.191162</ele>
        <time>2012-05-08T18:09:00Z</time>
      </trkpt>
      <trkpt lat="-17.55169" lon="-149.55472">
        <ele>188.555786</ele>
        <time>2012-05-08T18:09:13Z</time>
      </trkpt>
      <trkpt lat="-17.55176" lon="-149.55457">
        <ele>189.036377</ele>
        <time>2012-05-08T18:09:27Z</time>
      </trkpt>
      <trkpt lat="-17.5517" lon="-149.55451">
        <ele>189.516968</ele>
        <time>2012-05-08T18:09:35Z</time>
      </trkpt>
      <trkpt lat="-17.5516" lon="-149.55453">
        <ele>190.478394</ele>
        <time>2012-05-08T18:09:44Z</time>
      </trkpt>
      <trkpt lat="-17.55151" lon="-149.5546">
        <ele>192.881714</ele>
        <time>2012-05-08T18:09:56Z</time>
      </trkpt>
      <trkpt lat="-17.5515" lon="-149.55461">
        <ele>193.362305</ele>
        <time>2012-05-08T18:09:58Z</time>
      </trkpt>
      <trkpt lat="-17.55142" lon="-149.55464">
        <ele>195.284912</ele>
        <time>2012-05-08T18:10:09Z</time>
      </trkpt>
      <trkpt lat="-17.55133" lon="-149.55472">
        <ele>196.726929</ele>
        <time>2012-05-08T18:10:24Z</time>
      </trkpt>
      <trkpt lat="-17.55127" lon="-149.55471">
        <ele>197.688232</ele>
        <time>2012-05-08T18:10:31Z</time>
      </trkpt>
      <trkpt lat="-17.55122" lon="-149.55467">
        <ele>200.091675</ele>
        <time>2012-05-08T18:10:38Z</time>
      </trkpt>
      <trkpt lat="-17.55128" lon="-149.55456">
        <ele>200.091675</ele>
        <time>2012-05-08T18:10:52Z</time>
      </trkpt>
      <trkpt lat="-17.55142" lon="-149.55444">
        <ele>202.494873</ele>
        <time>2012-05-08T18:11:09Z</time>
      </trkpt>
      <trkpt lat="-17.55156" lon="-149.55435">
        <ele>204.41748</ele>
        <time>2012-05-08T18:11:24Z</time>
      </trkpt>
      <trkpt lat="-17.55165" lon="-149.55428">
        <ele>205.859497</ele>
        <time>2012-05-08T18:11:36Z</time>
      </trkpt>
      <trkpt lat="-17.55167" lon="-149.55427">
        <ele>205.859497</ele>
        <time>2012-05-08T18:11:38Z</time>
      </trkpt>
      <trkpt lat="-17.5517" lon="-149.55423">
        <ele>205.859497</ele>
        <time>2012-05-08T18:11:42Z</time>
      </trkpt>
      <trkpt lat="-17.55184" lon="-149.5541">
        <ele>208.262817</ele>
        <time>2012-05-08T18:11:59Z</time>
      </trkpt>
      <trkpt lat="-17.55195" lon="-149.55403">
        <ele>208.743408</ele>
        <time>2012-05-08T18:12:09Z</time>
      </trkpt>
      <trkpt lat="-17.552" lon="-149.55399">
        <ele>209.224121</ele>
        <time>2012-05-08T18:12:15Z</time>
      </trkpt>
      <trkpt lat="-17.55215" lon="-149.55393">
        <ele>211.146729</ele>
        <time>2012-05-08T18:12:30Z</time>
      </trkpt>
      <trkpt lat="-17.55229" lon="-149.55387">
        <ele>214.51123</ele>
        <time>2012-05-08T18:12:45Z</time>
      </trkpt>
      <trkpt lat="-17.55238" lon="-149.55382">
        <ele>217.875977</ele>
        <time>2012-05-08T18:12:58Z</time>
      </trkpt>
      <trkpt lat="-17.55244" lon="-149.55383">
        <ele>218.356567</ele>
        <time>2012-05-08T18:13:14Z</time>
      </trkpt>
      <trkpt lat="-17.55256" lon="-149.55379">
        <ele>220.279175</ele>
        <time>2012-05-08T18:13:26Z</time>
      </trkpt>
      <trkpt lat="-17.55269" lon="-149.5538">
        <ele>223.643799</ele>
        <time>2012-05-08T18:13:37Z</time>
      </trkpt>
      <trkpt lat="-17.55276" lon="-149.55381">
        <ele>225.566528</ele>
        <time>2012-05-08T18:13:43Z</time>
      </trkpt>
      <trkpt lat="-17.55294" lon="-149.55383">
        <ele>227.489136</ele>
        <time>2012-05-08T18:14:00Z</time>
      </trkpt>
      <trkpt lat="-17.55304" lon="-149.55385">
        <ele>229.892334</ele>
        <time>2012-05-08T18:14:11Z</time>
      </trkpt>
      <trkpt lat="-17.55307" lon="-149.55383">
        <ele>230.85376</ele>
        <time>2012-05-08T18:14:14Z</time>
      </trkpt>
      <trkpt lat="-17.55324" lon="-149.55376">
        <ele>232.295776</ele>
        <time>2012-05-08T18:14:32Z</time>
      </trkpt>
      <trkpt lat="-17.55333" lon="-149.5537">
        <ele>235.179688</ele>
        <time>2012-05-08T18:14:45Z</time>
      </trkpt>
      <trkpt lat="-17.55345" lon="-149.55365">
        <ele>236.621704</ele>
        <time>2012-05-08T18:14:59Z</time>
      </trkpt>
      <trkpt lat="-17.55362" lon="-149.55359">
        <ele>238.544312</ele>
        <time>2012-05-08T18:15:14Z</time>
      </trkpt>
      <trkpt lat="-17.55378" lon="-149.55355">
        <ele>239.505493</ele>
        <time>2012-05-08T18:15:29Z</time>
      </trkpt>
      <trkpt lat="-17.55394" lon="-149.55346">
        <ele>240.947632</ele>
        <time>2012-05-08T18:15:45Z</time>
      </trkpt>
      <trkpt lat="-17.554" lon="-149.55338">
        <ele>240.947632</ele>
        <time>2012-05-08T18:15:56Z</time>
      </trkpt>
      <trkpt lat="-17.55402" lon="-149.55337">
        <ele>240.947632</ele>
        <time>2012-05-08T18:16:16Z</time>
      </trkpt>
      <trkpt lat="-17.55411" lon="-149.55321">
        <ele>239.505493</ele>
        <time>2012-05-08T18:16:30Z</time>
      </trkpt>
      <trkpt lat="-17.55422" lon="-149.55303">
        <ele>238.063599</ele>
        <time>2012-05-08T18:16:46Z</time>
      </trkpt>
      <trkpt lat="-17.55432" lon="-149.55289">
        <ele>235.660278</ele>
        <time>2012-05-08T18:17:00Z</time>
      </trkpt>
      <trkpt lat="-17.55447" lon="-149.55272">
        <ele>232.295776</ele>
        <time>2012-05-08T18:17:17Z</time>
      </trkpt>
      <trkpt lat="-17.55461" lon="-149.55258">
        <ele>229.892334</ele>
        <time>2012-05-08T18:17:31Z</time>
      </trkpt>
      <trkpt lat="-17.55477" lon="-149.55244">
        <ele>227.969727</ele>
        <time>2012-05-08T18:17:49Z</time>
      </trkpt>
      <trkpt lat="-17.55482" lon="-149.5524">
        <ele>227.008545</ele>
        <time>2012-05-08T18:17:54Z</time>
      </trkpt>
      <trkpt lat="-17.55496" lon="-149.5523">
        <ele>224.605225</ele>
        <time>2012-05-08T18:18:10Z</time>
      </trkpt>
      <trkpt lat="-17.55505" lon="-149.55222">
        <ele>221.240601</ele>
        <time>2012-05-08T18:18:21Z</time>
      </trkpt>
      <trkpt lat="-17.55506" lon="-149.55221">
        <ele>221.240601</ele>
        <time>2012-05-08T18:18:22Z</time>
      </trkpt>
      <trkpt lat="-17.55514" lon="-149.55211">
        <ele>219.317993</ele>
        <time>2012-05-08T18:18:36Z</time>
      </trkpt>
      <trkpt lat="-17.55518" lon="-149.55202">
        <ele>215.953247</ele>
        <time>2012-05-08T18:18:46Z</time>
      </trkpt>
      <trkpt lat="-17.55525" lon="-149.55195">
        <ele>213.550049</ele>
        <time>2012-05-08T18:18:59Z</time>
      </trkpt>
      <trkpt lat="-17.5553" lon="-149.55183">
        <ele>213.069336</ele>
        <time>2012-05-08T18:19:12Z</time>
      </trkpt>
      <trkpt lat="-17.55534" lon="-149.55175">
        <ele>210.185425</ele>
        <time>2012-05-08T18:19:19Z</time>
      </trkpt>
      <trkpt lat="-17.55539" lon="-149.55169">
        <ele>210.185425</ele>
        <time>2012-05-08T18:19:34Z</time>
      </trkpt>
      <trkpt lat="-17.5554" lon="-149.55169">
        <ele>208.743408</ele>
        <time>2012-05-08T18:19:36Z</time>
      </trkpt>
      <trkpt lat="-17.55541" lon="-149.55169">
        <ele>208.743408</ele>
        <time>2012-05-08T18:19:37Z</time>
      </trkpt>
      <trkpt lat="-17.55553" lon="-149.55159">
        <ele>206.340088</ele>
        <time>2012-05-08T18:19:51Z</time>
      </trkpt>
      <trkpt lat="-17.55563" lon="-149.55151">
        <ele>204.898071</ele>
        <time>2012-05-08T18:20:02Z</time>
      </trkpt>
      <trkpt lat="-17.55575" lon="-149.55145">
        <ele>203.93689</ele>
        <time>2012-05-08T18:20:13Z</time>
      </trkpt>
      <trkpt lat="-17.55576" lon="-149.55145">
        <ele>203.93689</ele>
        <time>2012-05-08T18:20:14Z</time>
      </trkpt>
      <trkpt lat="-17.55585" lon="-149.55142">
        <ele>203.456177</ele>
        <time>2012-05-08T18:20:22Z</time>
      </trkpt>
      <trkpt lat="-17.55589" lon="-149.55142">
        <ele>203.456177</ele>
        <time>2012-05-08T18:20:27Z</time>
      </trkpt>
      <trkpt lat="-17.55606" lon="-149.55141">
        <ele>201.052856</ele>
        <time>2012-05-08T18:20:45Z</time>
      </trkpt>
      <trkpt lat="-17.55614" lon="-149.55137">
        <ele>198.168945</ele>
        <time>2012-05-08T18:20:55Z</time>
      </trkpt>
      <trkpt lat="-17.55623" lon="-149.55133">
        <ele>194.804321</ele>
        <time>2012-05-08T18:21:06Z</time>
      </trkpt>
      <trkpt lat="-17.55635" lon="-149.55136">
        <ele>191.920288</ele>
        <time>2012-05-08T18:21:21Z</time>
      </trkpt>
      <trkpt lat="-17.55644" lon="-149.55135">
        <ele>189.516968</ele>
        <time>2012-05-08T18:21:32Z</time>
      </trkpt>
      <trkpt lat="-17.55653" lon="-149.55134">
        <ele>187.11377</ele>
        <time>2012-05-08T18:21:44Z</time>
      </trkpt>
      <trkpt lat="-17.55664" lon="-149.55134">
        <ele>184.710571</ele>
        <time>2012-05-08T18:21:57Z</time>
      </trkpt>
      <trkpt lat="-17.55671" lon="-149.55138">
        <ele>182.307129</ele>
        <time>2012-05-08T18:22:09Z</time>
      </trkpt>
      <trkpt lat="-17.55678" lon="-149.55139">
        <ele>180.384521</ele>
        <time>2012-05-08T18:22:18Z</time>
      </trkpt>
      <trkpt lat="-17.55681" lon="-149.55137">
        <ele>179.903809</ele>
        <time>2012-05-08T18:22:20Z</time>
      </trkpt>
      <trkpt lat="-17.55689" lon="-149.55126">
        <ele>181.826416</ele>
        <time>2012-05-08T18:22:30Z</time>
      </trkpt>
      <trkpt lat="-17.55691" lon="-149.55121">
        <ele>182.307129</ele>
        <time>2012-05-08T18:22:33Z</time>
      </trkpt>
      <trkpt lat="-17.55696" lon="-149.55116">
        <ele>184.229858</ele>
        <time>2012-05-08T18:22:38Z</time>
      </trkpt>
      <trkpt lat="-17.557" lon="-149.55115">
        <ele>183.749023</ele>
        <time>2012-05-08T18:22:41Z</time>
      </trkpt>
      <trkpt lat="-17.55702" lon="-149.55102">
        <ele>186.633179</ele>
        <time>2012-05-08T18:22:56Z</time>
      </trkpt>
      <trkpt lat="-17.557" lon="-149.5509">
        <ele>189.036377</ele>
        <time>2012-05-08T18:23:06Z</time>
      </trkpt>
      <trkpt lat="-17.55694" lon="-149.55075">
        <ele>191.920288</ele>
        <time>2012-05-08T18:23:21Z</time>
      </trkpt>
      <trkpt lat="-17.55694" lon="-149.55074">
        <ele>191.439575</ele>
        <time>2012-05-08T18:23:22Z</time>
      </trkpt>
      <trkpt lat="-17.55681" lon="-149.55063">
        <ele>192.881714</ele>
        <time>2012-05-08T18:23:37Z</time>
      </trkpt>
      <trkpt lat="-17.55675" lon="-149.55055">
        <ele>194.32373</ele>
        <time>2012-05-08T18:23:47Z</time>
      </trkpt>
      <trkpt lat="-17.55671" lon="-149.55049">
        <ele>195.284912</ele>
        <time>2012-05-08T18:23:55Z</time>
      </trkpt>
      <trkpt lat="-17.55667" lon="-149.55037">
        <ele>196.246338</ele>
        <time>2012-05-08T18:24:10Z</time>
      </trkpt>
      <trkpt lat="-17.55663" lon="-149.5502">
        <ele>196.726929</ele>
        <time>2012-05-08T18:24:22Z</time>
      </trkpt>
      <trkpt lat="-17.55655" lon="-149.55">
        <ele>197.20752</ele>
        <time>2012-05-08T18:24:38Z</time>
      </trkpt>
      <trkpt lat="-17.55654" lon="-149.54987">
        <ele>198.168945</ele>
        <time>2012-05-08T18:24:50Z</time>
      </trkpt>
      <trkpt lat="-17.55657" lon="-149.54981">
        <ele>198.649536</ele>
        <time>2012-05-08T18:24:55Z</time>
      </trkpt>
      <trkpt lat="-17.55663" lon="-149.54971">
        <ele>199.61084</ele>
        <time>2012-05-08T18:25:08Z</time>
      </trkpt>
      <trkpt lat="-17.55678" lon="-149.54956">
        <ele>199.130127</ele>
        <time>2012-05-08T18:25:23Z</time>
      </trkpt>
      <trkpt lat="-17.55684" lon="-149.54948">
        <ele>199.61084</ele>
        <time>2012-05-08T18:25:33Z</time>
      </trkpt>
      <trkpt lat="-17.55692" lon="-149.54937">
        <ele>200.572266</ele>
        <time>2012-05-08T18:25:42Z</time>
      </trkpt>
      <trkpt lat="-17.55696" lon="-149.54933">
        <ele>200.572266</ele>
        <time>2012-05-08T18:25:48Z</time>
      </trkpt>
      <trkpt lat="-17.55698" lon="-149.54932">
        <ele>200.091675</ele>
        <time>2012-05-08T18:25:50Z</time>
      </trkpt>
      <trkpt lat="-17.557" lon="-149.5493">
        <ele>200.091675</ele>
        <time>2012-05-08T18:25:52Z</time>
      </trkpt>
      <trkpt lat="-17.55705" lon="-149.54928">
        <ele>200.572266</ele>
        <time>2012-05-08T18:25:57Z</time>
      </trkpt>
      <trkpt lat="-17.5571" lon="-149.54925">
        <ele>200.572266</ele>
        <time>2012-05-08T18:26:02Z</time>
      </trkpt>
      <trkpt lat="-17.55724" lon="-149.54921">
        <ele>201.533569</ele>
        <time>2012-05-08T18:26:14Z</time>
      </trkpt>
      <trkpt lat="-17.55726" lon="-149.5492">
        <ele>201.533569</ele>
        <time>2012-05-08T18:26:16Z</time>
      </trkpt>
      <trkpt lat="-17.55742" lon="-149.54915">
        <ele>202.494873</ele>
        <time>2012-05-08T18:26:31Z</time>
      </trkpt>
      <trkpt lat="-17.55748" lon="-149.54915">
        <ele>204.898071</ele>
        <time>2012-05-08T18:26:39Z</time>
      </trkpt>
      <trkpt lat="-17.55758" lon="-149.54902">
        <ele>204.898071</ele>
        <time>2012-05-08T18:26:53Z</time>
      </trkpt>
      <trkpt lat="-17.55762" lon="-149.54889">
        <ele>206.820679</ele>
        <time>2012-05-08T18:27:08Z</time>
      </trkpt>
      <trkpt lat="-17.55763" lon="-149.54879">
        <ele>207.301392</ele>
        <time>2012-05-08T18:27:16Z</time>
      </trkpt>
      <trkpt lat="-17.55771" lon="-149.54862">
        <ele>208.262817</ele>
        <time>2012-05-08T18:27:31Z</time>
      </trkpt>
      <trkpt lat="-17.55782" lon="-149.54851">
        <ele>207.782104</ele>
        <time>2012-05-08T18:27:45Z</time>
      </trkpt>
      <trkpt lat="-17.55795" lon="-149.54839">
        <ele>208.262817</ele>
        <time>2012-05-08T18:28:01Z</time>
      </trkpt>
      <trkpt lat="-17.55805" lon="-149.54832">
        <ele>209.704834</ele>
        <time>2012-05-08T18:28:15Z</time>
      </trkpt>
      <trkpt lat="-17.55816" lon="-149.54825">
        <ele>211.146729</ele>
        <time>2012-05-08T18:28:29Z</time>
      </trkpt>
      <trkpt lat="-17.55824" lon="-149.5482">
        <ele>213.069336</ele>
        <time>2012-05-08T18:28:42Z</time>
      </trkpt>
      <trkpt lat="-17.55833" lon="-149.54817">
        <ele>214.03064</ele>
        <time>2012-05-08T18:28:53Z</time>
      </trkpt>
      <trkpt lat="-17.55846" lon="-149.54808">
        <ele>215.472656</ele>
        <time>2012-05-08T18:29:10Z</time>
      </trkpt>
      <trkpt lat="-17.55858" lon="-149.54805">
        <ele>217.875977</ele>
        <time>2012-05-08T18:29:25Z</time>
      </trkpt>
      <trkpt lat="-17.55869" lon="-149.54805">
        <ele>220.279175</ele>
        <time>2012-05-08T18:29:39Z</time>
      </trkpt>
      <trkpt lat="-17.55876" lon="-149.54811">
        <ele>222.201782</ele>
        <time>2012-05-08T18:29:47Z</time>
      </trkpt>
      <trkpt lat="-17.55885" lon="-149.54819">
        <ele>223.643799</ele>
        <time>2012-05-08T18:30:01Z</time>
      </trkpt>
      <trkpt lat="-17.55894" lon="-149.54823">
        <ele>226.047119</ele>
        <time>2012-05-08T18:30:17Z</time>
      </trkpt>
      <trkpt lat="-17.55907" lon="-149.54822">
        <ele>228.931152</ele>
        <time>2012-05-08T18:30:33Z</time>
      </trkpt>
      <trkpt lat="-17.55918" lon="-149.54816">
        <ele>229.892334</ele>
        <time>2012-05-08T18:30:45Z</time>
      </trkpt>
      <trkpt lat="-17.55925" lon="-149.54807">
        <ele>230.85376</ele>
        <time>2012-05-08T18:30:57Z</time>
      </trkpt>
      <trkpt lat="-17.55928" lon="-149.54801">
        <ele>231.334351</ele>
        <time>2012-05-08T18:31:05Z</time>
      </trkpt>
      <trkpt lat="-17.55935" lon="-149.54785">
        <ele>233.737671</ele>
        <time>2012-05-08T18:31:22Z</time>
      </trkpt>
      <trkpt lat="-17.55944" lon="-149.54773">
        <ele>235.179688</ele>
        <time>2012-05-08T18:31:36Z</time>
      </trkpt>
      <trkpt lat="-17.55949" lon="-149.54767">
        <ele>235.660278</ele>
        <time>2012-05-08T18:31:43Z</time>
      </trkpt>
      <trkpt lat="-17.5596" lon="-149.54757">
        <ele>236.621704</ele>
        <time>2012-05-08T18:31:56Z</time>
      </trkpt>
      <trkpt lat="-17.55966" lon="-149.54753">
        <ele>237.102295</ele>
        <time>2012-05-08T18:32:03Z</time>
      </trkpt>
      <trkpt lat="-17.55974" lon="-149.54748">
        <ele>239.986206</ele>
        <time>2012-05-08T18:32:17Z</time>
      </trkpt>
      <trkpt lat="-17.55983" lon="-149.5473">
        <ele>240.947632</ele>
        <time>2012-05-08T18:32:32Z</time>
      </trkpt>
      <trkpt lat="-17.55992" lon="-149.54727">
        <ele>241.908936</ele>
        <time>2012-05-08T18:32:42Z</time>
      </trkpt>
      <trkpt lat="-17.55997" lon="-149.54724">
        <ele>242.870239</ele>
        <time>2012-05-08T18:32:53Z</time>
      </trkpt>
      <trkpt lat="-17.56001" lon="-149.54719">
        <ele>243.831543</ele>
        <time>2012-05-08T18:33:04Z</time>
      </trkpt>
      <trkpt lat="-17.56012" lon="-149.54714">
        <ele>243.831543</ele>
        <time>2012-05-08T18:33:16Z</time>
      </trkpt>
      <trkpt lat="-17.56011" lon="-149.54718">
        <ele>244.312256</ele>
        <time>2012-05-08T18:33:18Z</time>
      </trkpt>
      <trkpt lat="-17.56009" lon="-149.54732">
        <ele>246.715454</ele>
        <time>2012-05-08T18:33:32Z</time>
      </trkpt>
      <trkpt lat="-17.56009" lon="-149.54742">
        <ele>247.196045</ele>
        <time>2012-05-08T18:33:41Z</time>
      </trkpt>
      <trkpt lat="-17.56009" lon="-149.54744">
        <ele>247.196045</ele>
        <time>2012-05-08T18:33:42Z</time>
      </trkpt>
      <trkpt lat="-17.56016" lon="-149.54751">
        <ele>248.157593</ele>
        <time>2012-05-08T18:33:53Z</time>
      </trkpt>
      <trkpt lat="-17.56023" lon="-149.54762">
        <ele>251.522095</ele>
        <time>2012-05-08T18:34:13Z</time>
      </trkpt>
      <trkpt lat="-17.56029" lon="-149.54778">
        <ele>252.963989</ele>
        <time>2012-05-08T18:34:26Z</time>
      </trkpt>
      <trkpt lat="-17.56037" lon="-149.54785">
        <ele>253.925415</ele>
        <time>2012-05-08T18:34:36Z</time>
      </trkpt>
      <trkpt lat="-17.5604" lon="-149.54785">
        <ele>253.925415</ele>
        <time>2012-05-08T18:34:43Z</time>
      </trkpt>
      <trkpt lat="-17.56051" lon="-149.54785">
        <ele>254.406006</ele>
        <time>2012-05-08T18:34:55Z</time>
      </trkpt>
      <trkpt lat="-17.56058" lon="-149.54782">
        <ele>255.36731</ele>
        <time>2012-05-08T18:35:05Z</time>
      </trkpt>
      <trkpt lat="-17.56067" lon="-149.54776">
        <ele>255.848022</ele>
        <time>2012-05-08T18:35:15Z</time>
      </trkpt>
      <trkpt lat="-17.56072" lon="-149.54773">
        <ele>256.809326</ele>
        <time>2012-05-08T18:35:27Z</time>
      </trkpt>
      <trkpt lat="-17.56078" lon="-149.54771">
        <ele>257.770752</ele>
        <time>2012-05-08T18:35:38Z</time>
      </trkpt>
      <trkpt lat="-17.56087" lon="-149.54765">
        <ele>259.693359</ele>
        <time>2012-05-08T18:35:49Z</time>
      </trkpt>
      <trkpt lat="-17.56102" lon="-149.54768">
        <ele>260.654541</ele>
        <time>2012-05-08T18:35:59Z</time>
      </trkpt>
      <trkpt lat="-17.56111" lon="-149.54776">
        <ele>262.096558</ele>
        <time>2012-05-08T18:36:07Z</time>
      </trkpt>
      <trkpt lat="-17.56118" lon="-149.54786">
        <ele>263.057861</ele>
        <time>2012-05-08T18:36:16Z</time>
      </trkpt>
      <trkpt lat="-17.56119" lon="-149.54792">
        <ele>264.019287</ele>
        <time>2012-05-08T18:36:20Z</time>
      </trkpt>
      <trkpt lat="-17.56127" lon="-149.548">
        <ele>264.980591</ele>
        <time>2012-05-08T18:36:36Z</time>
      </trkpt>
      <trkpt lat="-17.56139" lon="-149.54801">
        <ele>265.941895</ele>
        <time>2012-05-08T18:36:50Z</time>
      </trkpt>
      <trkpt lat="-17.56144" lon="-149.548">
        <ele>265.941895</ele>
        <time>2012-05-08T18:36:55Z</time>
      </trkpt>
      <trkpt lat="-17.56162" lon="-149.54796">
        <ele>265.941895</ele>
        <time>2012-05-08T18:37:12Z</time>
      </trkpt>
      <trkpt lat="-17.56173" lon="-149.54789">
        <ele>266.422485</ele>
        <time>2012-05-08T18:37:26Z</time>
      </trkpt>
      <trkpt lat="-17.56182" lon="-149.54791">
        <ele>265.941895</ele>
        <time>2012-05-08T18:37:37Z</time>
      </trkpt>
      <trkpt lat="-17.56184" lon="-149.54793">
        <ele>266.903198</ele>
        <time>2012-05-08T18:37:40Z</time>
      </trkpt>
      <trkpt lat="-17.56185" lon="-149.54802">
        <ele>267.383911</ele>
        <time>2012-05-08T18:37:54Z</time>
      </trkpt>
      <trkpt lat="-17.56188" lon="-149.54818">
        <ele>267.383911</ele>
        <time>2012-05-08T18:38:08Z</time>
      </trkpt>
      <trkpt lat="-17.56188" lon="-149.54822">
        <ele>267.864502</ele>
        <time>2012-05-08T18:38:10Z</time>
      </trkpt>
      <trkpt lat="-17.56194" lon="-149.54833">
        <ele>266.903198</ele>
        <time>2012-05-08T18:38:18Z</time>
      </trkpt>
      <trkpt lat="-17.56209" lon="-149.54833">
        <ele>267.864502</ele>
        <time>2012-05-08T18:38:33Z</time>
      </trkpt>
      <trkpt lat="-17.56225" lon="-149.54836">
        <ele>269.787109</ele>
        <time>2012-05-08T18:38:47Z</time>
      </trkpt>
      <trkpt lat="-17.56241" lon="-149.54836">
        <ele>270.2677</ele>
        <time>2012-05-08T18:39:02Z</time>
      </trkpt>
      <trkpt lat="-17.56243" lon="-149.54835">
        <ele>270.2677</ele>
        <time>2012-05-08T18:39:04Z</time>
      </trkpt>
      <trkpt lat="-17.56251" lon="-149.54842">
        <ele>270.748413</ele>
        <time>2012-05-08T18:39:13Z</time>
      </trkpt>
      <trkpt lat="-17.56262" lon="-149.54852">
        <ele>270.2677</ele>
        <time>2012-05-08T18:39:28Z</time>
      </trkpt>
      <trkpt lat="-17.56267" lon="-149.54857">
        <ele>269.306519</ele>
        <time>2012-05-08T18:39:34Z</time>
      </trkpt>
      <trkpt lat="-17.5627" lon="-149.54858">
        <ele>269.306519</ele>
        <time>2012-05-08T18:39:37Z</time>
      </trkpt>
      <trkpt lat="-17.56278" lon="-149.54864">
        <ele>268.825806</ele>
        <time>2012-05-08T18:39:50Z</time>
      </trkpt>
      <trkpt lat="-17.56279" lon="-149.54864">
        <ele>269.306519</ele>
        <time>2012-05-08T18:39:51Z</time>
      </trkpt>
      <trkpt lat="-17.56277" lon="-149.54863">
        <ele>269.787109</ele>
        <time>2012-05-08T18:39:59Z</time>
      </trkpt>
      <trkpt lat="-17.56276" lon="-149.54864">
        <ele>268.825806</ele>
        <time>2012-05-08T18:40:08Z</time>
      </trkpt>
      <trkpt lat="-17.56291" lon="-149.54861">
        <ele>269.306519</ele>
        <time>2012-05-08T18:40:25Z</time>
      </trkpt>
      <trkpt lat="-17.56292" lon="-149.54861">
        <ele>269.306519</ele>
        <time>2012-05-08T18:40:32Z</time>
      </trkpt>
      <trkpt lat="-17.56294" lon="-149.5486">
        <ele>269.787109</ele>
        <time>2012-05-08T18:40:52Z</time>
      </trkpt>
      <trkpt lat="-17.56294" lon="-149.5486">
        <ele>269.306519</ele>
        <time>2012-05-08T18:40:59Z</time>
      </trkpt>
      <trkpt lat="-17.56309" lon="-149.54849">
        <ele>269.787109</ele>
        <time>2012-05-08T18:41:14Z</time>
      </trkpt>
      <trkpt lat="-17.56313" lon="-149.54845">
        <ele>270.748413</ele>
        <time>2012-05-08T18:41:18Z</time>
      </trkpt>
      <trkpt lat="-17.56322" lon="-149.54837">
        <ele>270.2677</ele>
        <time>2012-05-08T18:41:27Z</time>
      </trkpt>
      <trkpt lat="-17.56334" lon="-149.54826">
        <ele>270.748413</ele>
        <time>2012-05-08T18:41:40Z</time>
      </trkpt>
      <trkpt lat="-17.56337" lon="-149.54823">
        <ele>270.748413</ele>
        <time>2012-05-08T18:41:44Z</time>
      </trkpt>
      <trkpt lat="-17.56342" lon="-149.54816">
        <ele>271.229126</ele>
        <time>2012-05-08T18:41:54Z</time>
      </trkpt>
      <trkpt lat="-17.56344" lon="-149.54814">
        <ele>270.748413</ele>
        <time>2012-05-08T18:41:56Z</time>
      </trkpt>
      <trkpt lat="-17.56349" lon="-149.54804">
        <ele>270.748413</ele>
        <time>2012-05-08T18:42:08Z</time>
      </trkpt>
      <trkpt lat="-17.56352" lon="-149.54802">
        <ele>269.787109</ele>
        <time>2012-05-08T18:42:20Z</time>
      </trkpt>
      <trkpt lat="-17.56359" lon="-149.54799">
        <ele>269.306519</ele>
        <time>2012-05-08T18:42:34Z</time>
      </trkpt>
      <trkpt lat="-17.56366" lon="-149.54793">
        <ele>269.306519</ele>
        <time>2012-05-08T18:42:50Z</time>
      </trkpt>
      <trkpt lat="-17.56375" lon="-149.54787">
        <ele>268.345093</ele>
        <time>2012-05-08T18:43:04Z</time>
      </trkpt>
      <trkpt lat="-17.56377" lon="-149.54786">
        <ele>267.864502</ele>
        <time>2012-05-08T18:43:07Z</time>
      </trkpt>
      <trkpt lat="-17.56386" lon="-149.54788">
        <ele>268.345093</ele>
        <time>2012-05-08T18:43:18Z</time>
      </trkpt>
      <trkpt lat="-17.5639" lon="-149.54791">
        <ele>267.383911</ele>
        <time>2012-05-08T18:43:31Z</time>
      </trkpt>
      <trkpt lat="-17.56395" lon="-149.54786">
        <ele>267.383911</ele>
        <time>2012-05-08T18:43:58Z</time>
      </trkpt>
      <trkpt lat="-17.56402" lon="-149.54789">
        <ele>267.383911</ele>
        <time>2012-05-08T18:44:14Z</time>
      </trkpt>
      <trkpt lat="-17.56401" lon="-149.54794">
        <ele>266.903198</ele>
        <time>2012-05-08T18:44:28Z</time>
      </trkpt>
      <trkpt lat="-17.56404" lon="-149.54787">
        <ele>267.864502</ele>
        <time>2012-05-08T18:45:11Z</time>
      </trkpt>
      <trkpt lat="-17.56407" lon="-149.54796">
        <ele>267.864502</ele>
        <time>2012-05-08T18:45:26Z</time>
      </trkpt>
      <trkpt lat="-17.56409" lon="-149.54801">
        <ele>267.864502</ele>
        <time>2012-05-08T18:45:44Z</time>
      </trkpt>
      <trkpt lat="-17.56412" lon="-149.54791">
        <ele>268.825806</ele>
        <time>2012-05-08T18:46:21Z</time>
      </trkpt>
      <trkpt lat="-17.56414" lon="-149.54797">
        <ele>269.306519</ele>
        <time>2012-05-08T18:46:45Z</time>
      </trkpt>
      <trkpt lat="-17.56418" lon="-149.54803">
        <ele>269.306519</ele>
        <time>2012-05-08T18:47:00Z</time>
      </trkpt>
      <trkpt lat="-17.56423" lon="-149.54806">
        <ele>270.2677</ele>
        <time>2012-05-08T18:47:11Z</time>
      </trkpt>
      <trkpt lat="-17.56428" lon="-149.54811">
        <ele>270.748413</ele>
        <time>2012-05-08T18:47:22Z</time>
      </trkpt>
      <trkpt lat="-17.56442" lon="-149.5481">
        <ele>269.787109</ele>
        <time>2012-05-08T18:47:39Z</time>
      </trkpt>
      <trkpt lat="-17.56452" lon="-149.54798">
        <ele>270.748413</ele>
        <time>2012-05-08T18:47:53Z</time>
      </trkpt>
      <trkpt lat="-17.56455" lon="-149.54795">
        <ele>271.229126</ele>
        <time>2012-05-08T18:48:05Z</time>
      </trkpt>
      <trkpt lat="-17.56448" lon="-149.54788">
        <ele>270.748413</ele>
        <time>2012-05-08T18:48:22Z</time>
      </trkpt>
      <trkpt lat="-17.56438" lon="-149.54793">
        <ele>269.306519</ele>
        <time>2012-05-08T18:48:34Z</time>
      </trkpt>
      <trkpt lat="-17.56427" lon="-149.54801">
        <ele>268.345093</ele>
        <time>2012-05-08T18:48:49Z</time>
      </trkpt>
      <trkpt lat="-17.56419" lon="-149.54795">
        <ele>267.864502</ele>
        <time>2012-05-08T18:49:04Z</time>
      </trkpt>
      <trkpt lat="-17.56411" lon="-149.54791">
        <ele>268.345093</ele>
        <time>2012-05-08T18:49:18Z</time>
      </trkpt>
      <trkpt lat="-17.56407" lon="-149.5479">
        <ele>268.345093</ele>
        <time>2012-05-08T18:49:34Z</time>
      </trkpt>
      <trkpt lat="-17.56397" lon="-149.54788">
        <ele>269.306519</ele>
        <time>2012-05-08T18:49:49Z</time>
      </trkpt>
      <trkpt lat="-17.56394" lon="-149.54787">
        <ele>269.787109</ele>
        <time>2012-05-08T18:49:52Z</time>
      </trkpt>
      <trkpt lat="-17.5638" lon="-149.54784">
        <ele>269.787109</ele>
        <time>2012-05-08T18:50:06Z</time>
      </trkpt>
      <trkpt lat="-17.56373" lon="-149.5479">
        <ele>270.2677</ele>
        <time>2012-05-08T18:50:19Z</time>
      </trkpt>
      <trkpt lat="-17.56364" lon="-149.54795">
        <ele>270.748413</ele>
        <time>2012-05-08T18:50:32Z</time>
      </trkpt>
      <trkpt lat="-17.56354" lon="-149.54794">
        <ele>270.748413</ele>
        <time>2012-05-08T18:50:45Z</time>
      </trkpt>
      <trkpt lat="-17.56344" lon="-149.54797">
        <ele>270.748413</ele>
        <time>2012-05-08T18:50:56Z</time>
      </trkpt>
      <trkpt lat="-17.56339" lon="-149.54804">
        <ele>271.229126</ele>
        <time>2012-05-08T18:51:45Z</time>
      </trkpt>
      <trkpt lat="-17.56341" lon="-149.54819">
        <ele>271.709717</ele>
        <time>2012-05-08T18:51:56Z</time>
      </trkpt>
      <trkpt lat="-17.56336" lon="-149.54826">
        <ele>271.229126</ele>
        <time>2012-05-08T18:52:13Z</time>
      </trkpt>
      <trkpt lat="-17.5633" lon="-149.54833">
        <ele>271.709717</ele>
        <time>2012-05-08T18:52:29Z</time>
      </trkpt>
      <trkpt lat="-17.56325" lon="-149.54837">
        <ele>270.748413</ele>
        <time>2012-05-08T18:52:41Z</time>
      </trkpt>
      <trkpt lat="-17.56323" lon="-149.54838">
        <ele>271.229126</ele>
        <time>2012-05-08T18:52:44Z</time>
      </trkpt>
      <trkpt lat="-17.56311" lon="-149.54848">
        <ele>271.709717</ele>
        <time>2012-05-08T18:53:03Z</time>
      </trkpt>
      <trkpt lat="-17.56302" lon="-149.54852">
        <ele>270.748413</ele>
        <time>2012-05-08T18:53:14Z</time>
      </trkpt>
      <trkpt lat="-17.56288" lon="-149.54858">
        <ele>270.748413</ele>
        <time>2012-05-08T18:53:32Z</time>
      </trkpt>
      <trkpt lat="-17.56281" lon="-149.54861">
        <ele>270.748413</ele>
        <time>2012-05-08T18:53:47Z</time>
      </trkpt>
      <trkpt lat="-17.56274" lon="-149.54865">
        <ele>270.748413</ele>
        <time>2012-05-08T18:54:00Z</time>
      </trkpt>
      <trkpt lat="-17.56272" lon="-149.54856">
        <ele>271.229126</ele>
        <time>2012-05-08T18:54:15Z</time>
      </trkpt>
      <trkpt lat="-17.56267" lon="-149.5485">
        <ele>271.709717</ele>
        <time>2012-05-08T18:54:27Z</time>
      </trkpt>
      <trkpt lat="-17.56264" lon="-149.54847">
        <ele>271.709717</ele>
        <time>2012-05-08T18:54:48Z</time>
      </trkpt>
      <trkpt lat="-17.56258" lon="-149.54843">
        <ele>271.709717</ele>
        <time>2012-05-08T18:54:57Z</time>
      </trkpt>
      <trkpt lat="-17.56248" lon="-149.54837">
        <ele>271.709717</ele>
        <time>2012-05-08T18:55:08Z</time>
      </trkpt>
      <trkpt lat="-17.56235" lon="-149.54834">
        <ele>270.748413</ele>
        <time>2012-05-08T18:55:20Z</time>
      </trkpt>
      <trkpt lat="-17.56231" lon="-149.54833">
        <ele>270.748413</ele>
        <time>2012-05-08T18:55:23Z</time>
      </trkpt>
      <trkpt lat="-17.56219" lon="-149.54832">
        <ele>270.748413</ele>
        <time>2012-05-08T18:55:37Z</time>
      </trkpt>
      <trkpt lat="-17.56202" lon="-149.54827">
        <ele>269.787109</ele>
        <time>2012-05-08T18:55:52Z</time>
      </trkpt>
      <trkpt lat="-17.56193" lon="-149.54825">
        <ele>269.787109</ele>
        <time>2012-05-08T18:56:06Z</time>
      </trkpt>
      <trkpt lat="-17.56193" lon="-149.54825">
        <ele>269.787109</ele>
        <time>2012-05-08T18:56:09Z</time>
      </trkpt>
      <trkpt lat="-17.56195" lon="-149.54819">
        <ele>270.748413</ele>
        <time>2012-05-08T18:56:20Z</time>
      </trkpt>
      <trkpt lat="-17.56196" lon="-149.54808">
        <ele>269.787109</ele>
        <time>2012-05-08T18:56:32Z</time>
      </trkpt>
      <trkpt lat="-17.56188" lon="-149.54791">
        <ele>269.787109</ele>
        <time>2012-05-08T18:56:44Z</time>
      </trkpt>
      <trkpt lat="-17.56175" lon="-149.54786">
        <ele>269.787109</ele>
        <time>2012-05-08T18:56:55Z</time>
      </trkpt>
      <trkpt lat="-17.56168" lon="-149.54787">
        <ele>268.825806</ele>
        <time>2012-05-08T18:57:02Z</time>
      </trkpt>
      <trkpt lat="-17.56157" lon="-149.5479">
        <ele>269.787109</ele>
        <time>2012-05-08T18:57:13Z</time>
      </trkpt>
      <trkpt lat="-17.5615" lon="-149.54794">
        <ele>268.825806</ele>
        <time>2012-05-08T18:57:20Z</time>
      </trkpt>
      <trkpt lat="-17.56137" lon="-149.54794">
        <ele>268.345093</ele>
        <time>2012-05-08T18:57:35Z</time>
      </trkpt>
      <trkpt lat="-17.56134" lon="-149.54789">
        <ele>268.345093</ele>
        <time>2012-05-08T18:57:43Z</time>
      </trkpt>
      <trkpt lat="-17.56127" lon="-149.54778">
        <ele>267.383911</ele>
        <time>2012-05-08T18:57:57Z</time>
      </trkpt>
      <trkpt lat="-17.56119" lon="-149.54776">
        <ele>266.903198</ele>
        <time>2012-05-08T18:58:09Z</time>
      </trkpt>
      <trkpt lat="-17.56113" lon="-149.54768">
        <ele>264.499878</ele>
        <time>2012-05-08T18:58:21Z</time>
      </trkpt>
      <trkpt lat="-17.56101" lon="-149.54761">
        <ele>263.538574</ele>
        <time>2012-05-08T18:58:31Z</time>
      </trkpt>
      <trkpt lat="-17.56083" lon="-149.54765">
        <ele>262.096558</ele>
        <time>2012-05-08T18:58:43Z</time>
      </trkpt>
      <trkpt lat="-17.56076" lon="-149.54771">
        <ele>262.096558</ele>
        <time>2012-05-08T18:58:49Z</time>
      </trkpt>
      <trkpt lat="-17.56071" lon="-149.54781">
        <ele>261.615967</ele>
        <time>2012-05-08T18:58:54Z</time>
      </trkpt>
      <trkpt lat="-17.56063" lon="-149.54786">
        <ele>260.17395</ele>
        <time>2012-05-08T18:59:08Z</time>
      </trkpt>
      <trkpt lat="-17.56058" lon="-149.54785">
        <ele>259.693359</ele>
        <time>2012-05-08T18:59:16Z</time>
      </trkpt>
      <trkpt lat="-17.56048" lon="-149.54781">
        <ele>258.251343</ele>
        <time>2012-05-08T18:59:27Z</time>
      </trkpt>
      <trkpt lat="-17.56044" lon="-149.54779">
        <ele>257.290039</ele>
        <time>2012-05-08T18:59:33Z</time>
      </trkpt>
      <trkpt lat="-17.56041" lon="-149.54769">
        <ele>256.328735</ele>
        <time>2012-05-08T18:59:49Z</time>
      </trkpt>
      <trkpt lat="-17.56042" lon="-149.54762">
        <ele>255.36731</ele>
        <time>2012-05-08T18:59:59Z</time>
      </trkpt>
      <trkpt lat="-17.56037" lon="-149.54754">
        <ele>254.886597</ele>
        <time>2012-05-08T19:00:11Z</time>
      </trkpt>
      <trkpt lat="-17.56037" lon="-149.54749">
        <ele>254.886597</ele>
        <time>2012-05-08T19:00:16Z</time>
      </trkpt>
      <trkpt lat="-17.56037" lon="-149.54737">
        <ele>252.963989</ele>
        <time>2012-05-08T19:00:29Z</time>
      </trkpt>
      <trkpt lat="-17.56033" lon="-149.54723">
        <ele>251.522095</ele>
        <time>2012-05-08T19:00:41Z</time>
      </trkpt>
      <trkpt lat="-17.56028" lon="-149.54715">
        <ele>250.560791</ele>
        <time>2012-05-08T19:00:52Z</time>
      </trkpt>
      <trkpt lat="-17.56018" lon="-149.5471">
        <ele>250.0802</ele>
        <time>2012-05-08T19:01:09Z</time>
      </trkpt>
      <trkpt lat="-17.56016" lon="-149.54714">
        <ele>250.560791</ele>
        <time>2012-05-08T19:01:12Z</time>
      </trkpt>
      <trkpt lat="-17.56006" lon="-149.54728">
        <ele>249.599487</ele>
        <time>2012-05-08T19:01:26Z</time>
      </trkpt>
      <trkpt lat="-17.55999" lon="-149.54733">
        <ele>248.638184</ele>
        <time>2012-05-08T19:01:37Z</time>
      </trkpt>
      <trkpt lat="-17.55992" lon="-149.54739">
        <ele>247.196045</ele>
        <time>2012-05-08T19:01:48Z</time>
      </trkpt>
      <trkpt lat="-17.55987" lon="-149.54745">
        <ele>245.75415</ele>
        <time>2012-05-08T19:01:58Z</time>
      </trkpt>
      <trkpt lat="-17.55974" lon="-149.54752">
        <ele>243.35083</ele>
        <time>2012-05-08T19:02:12Z</time>
      </trkpt>
      <trkpt lat="-17.55963" lon="-149.54757">
        <ele>242.389648</ele>
        <time>2012-05-08T19:02:23Z</time>
      </trkpt>
      <trkpt lat="-17.55953" lon="-149.54763">
        <ele>240.947632</ele>
        <time>2012-05-08T19:02:36Z</time>
      </trkpt>
      <trkpt lat="-17.55947" lon="-149.54769">
        <ele>240.467041</ele>
        <time>2012-05-08T19:02:47Z</time>
      </trkpt>
      <trkpt lat="-17.55939" lon="-149.54781">
        <ele>239.986206</ele>
        <time>2012-05-08T19:02:59Z</time>
      </trkpt>
      <trkpt lat="-17.55935" lon="-149.54792">
        <ele>239.505493</ele>
        <time>2012-05-08T19:03:08Z</time>
      </trkpt>
      <trkpt lat="-17.55927" lon="-149.54806">
        <ele>238.063599</ele>
        <time>2012-05-08T19:03:21Z</time>
      </trkpt>
      <trkpt lat="-17.55924" lon="-149.5481">
        <ele>237.582886</ele>
        <time>2012-05-08T19:03:26Z</time>
      </trkpt>
      <trkpt lat="-17.55917" lon="-149.54812">
        <ele>236.621704</ele>
        <time>2012-05-08T19:03:34Z</time>
      </trkpt>
      <trkpt lat="-17.55907" lon="-149.5481">
        <ele>233.737671</ele>
        <time>2012-05-08T19:03:46Z</time>
      </trkpt>
      <trkpt lat="-17.55904" lon="-149.54808">
        <ele>232.295776</ele>
        <time>2012-05-08T19:03:51Z</time>
      </trkpt>
      <trkpt lat="-17.55895" lon="-149.54805">
        <ele>230.373047</ele>
        <time>2012-05-08T19:04:04Z</time>
      </trkpt>
      <trkpt lat="-17.55885" lon="-149.54801">
        <ele>227.969727</ele>
        <time>2012-05-08T19:04:20Z</time>
      </trkpt>
      <trkpt lat="-17.55869" lon="-149.54802">
        <ele>225.566528</ele>
        <time>2012-05-08T19:04:36Z</time>
      </trkpt>
      <trkpt lat="-17.55857" lon="-149.54805">
        <ele>223.163208</ele>
        <time>2012-05-08T19:04:51Z</time>
      </trkpt>
      <trkpt lat="-17.55856" lon="-149.54805">
        <ele>222.682495</ele>
        <time>2012-05-08T19:04:52Z</time>
      </trkpt>
      <trkpt lat="-17.55844" lon="-149.54807">
        <ele>220.279175</ele>
        <time>2012-05-08T19:05:08Z</time>
      </trkpt>
      <trkpt lat="-17.55829" lon="-149.54814">
        <ele>217.875977</ele>
        <time>2012-05-08T19:05:27Z</time>
      </trkpt>
      <trkpt lat="-17.55817" lon="-149.5482">
        <ele>214.991943</ele>
        <time>2012-05-08T19:05:41Z</time>
      </trkpt>
      <trkpt lat="-17.55813" lon="-149.54822">
        <ele>213.550049</ele>
        <time>2012-05-08T19:05:46Z</time>
      </trkpt>
      <trkpt lat="-17.55802" lon="-149.54831">
        <ele>212.588623</ele>
        <time>2012-05-08T19:05:59Z</time>
      </trkpt>
      <trkpt lat="-17.55789" lon="-149.54842">
        <ele>212.588623</ele>
        <time>2012-05-08T19:06:13Z</time>
      </trkpt>
      <trkpt lat="-17.55787" lon="-149.54844">
        <ele>212.588623</ele>
        <time>2012-05-08T19:06:15Z</time>
      </trkpt>
      <trkpt lat="-17.55777" lon="-149.54855">
        <ele>212.588623</ele>
        <time>2012-05-08T19:06:26Z</time>
      </trkpt>
      <trkpt lat="-17.55772" lon="-149.54862">
        <ele>212.588623</ele>
        <time>2012-05-08T19:06:35Z</time>
      </trkpt>
      <trkpt lat="-17.55769" lon="-149.54884">
        <ele>211.627441</ele>
        <time>2012-05-08T19:06:50Z</time>
      </trkpt>
      <trkpt lat="-17.55766" lon="-149.54896">
        <ele>211.146729</ele>
        <time>2012-05-08T19:07:00Z</time>
      </trkpt>
      <trkpt lat="-17.55758" lon="-149.54903">
        <ele>209.224121</ele>
        <time>2012-05-08T19:07:12Z</time>
      </trkpt>
      <trkpt lat="-17.55758" lon="-149.54903">
        <ele>209.224121</ele>
        <time>2012-05-08T19:07:13Z</time>
      </trkpt>
      <trkpt lat="-17.55749" lon="-149.54904">
        <ele>208.743408</ele>
        <time>2012-05-08T19:07:25Z</time>
      </trkpt>
      <trkpt lat="-17.55745" lon="-149.54906">
        <ele>208.743408</ele>
        <time>2012-05-08T19:07:30Z</time>
      </trkpt>
      <trkpt lat="-17.55733" lon="-149.54917">
        <ele>207.301392</ele>
        <time>2012-05-08T19:07:43Z</time>
      </trkpt>
      <trkpt lat="-17.55721" lon="-149.54922">
        <ele>206.820679</ele>
        <time>2012-05-08T19:07:54Z</time>
      </trkpt>
      <trkpt lat="-17.55719" lon="-149.54922">
        <ele>207.301392</ele>
        <time>2012-05-08T19:07:56Z</time>
      </trkpt>
      <trkpt lat="-17.55716" lon="-149.54924">
        <ele>206.340088</ele>
        <time>2012-05-08T19:08:00Z</time>
      </trkpt>
      <trkpt lat="-17.55706" lon="-149.54927">
        <ele>206.340088</ele>
        <time>2012-05-08T19:08:07Z</time>
      </trkpt>
      <trkpt lat="-17.557" lon="-149.5493">
        <ele>206.340088</ele>
        <time>2012-05-08T19:08:12Z</time>
      </trkpt>
      <trkpt lat="-17.55684" lon="-149.54936">
        <ele>206.340088</ele>
        <time>2012-05-08T19:08:22Z</time>
      </trkpt>
      <trkpt lat="-17.5568" lon="-149.54936">
        <ele>206.820679</ele>
        <time>2012-05-08T19:08:24Z</time>
      </trkpt>
      <trkpt lat="-17.55675" lon="-149.54938">
        <ele>206.340088</ele>
        <time>2012-05-08T19:08:27Z</time>
      </trkpt>
      <trkpt lat="-17.55657" lon="-149.54948">
        <ele>207.301392</ele>
        <time>2012-05-08T19:08:40Z</time>
      </trkpt>
      <trkpt lat="-17.5565" lon="-149.54961">
        <ele>205.859497</ele>
        <time>2012-05-08T19:08:50Z</time>
      </trkpt>
      <trkpt lat="-17.55641" lon="-149.54975">
        <ele>204.41748</ele>
        <time>2012-05-08T19:09:02Z</time>
      </trkpt>
      <trkpt lat="-17.55638" lon="-149.54989">
        <ele>204.41748</ele>
        <time>2012-05-08T19:09:14Z</time>
      </trkpt>
      <trkpt lat="-17.55639" lon="-149.54992">
        <ele>203.93689</ele>
        <time>2012-05-08T19:09:16Z</time>
      </trkpt>
      <trkpt lat="-17.55645" lon="-149.55016">
        <ele>203.456177</ele>
        <time>2012-05-08T19:09:30Z</time>
      </trkpt>
      <trkpt lat="-17.55647" lon="-149.55028">
        <ele>202.014282</ele>
        <time>2012-05-08T19:09:40Z</time>
      </trkpt>
      <trkpt lat="-17.55655" lon="-149.55041">
        <ele>202.014282</ele>
        <time>2012-05-08T19:09:49Z</time>
      </trkpt>
      <trkpt lat="-17.55662" lon="-149.55053">
        <ele>201.052856</ele>
        <time>2012-05-08T19:09:59Z</time>
      </trkpt>
      <trkpt lat="-17.55672" lon="-149.55061">
        <ele>200.091675</ele>
        <time>2012-05-08T19:10:07Z</time>
      </trkpt>
      <trkpt lat="-17.55683" lon="-149.55068">
        <ele>198.649536</ele>
        <time>2012-05-08T19:10:18Z</time>
      </trkpt>
      <trkpt lat="-17.55692" lon="-149.55075">
        <ele>196.726929</ele>
        <time>2012-05-08T19:10:29Z</time>
      </trkpt>
      <trkpt lat="-17.557" lon="-149.55085">
        <ele>195.765625</ele>
        <time>2012-05-08T19:10:42Z</time>
      </trkpt>
      <trkpt lat="-17.55702" lon="-149.55094">
        <ele>192.881714</ele>
        <time>2012-05-08T19:10:55Z</time>
      </trkpt>
      <trkpt lat="-17.55708" lon="-149.55105">
        <ele>191.920288</ele>
        <time>2012-05-08T19:11:05Z</time>
      </trkpt>
      <trkpt lat="-17.55709" lon="-149.55108">
        <ele>191.439575</ele>
        <time>2012-05-08T19:11:07Z</time>
      </trkpt>
      <trkpt lat="-17.55704" lon="-149.55112">
        <ele>189.036377</ele>
        <time>2012-05-08T19:11:24Z</time>
      </trkpt>
      <trkpt lat="-17.55703" lon="-149.55112">
        <ele>188.555786</ele>
        <time>2012-05-08T19:11:25Z</time>
      </trkpt>
      <trkpt lat="-17.55689" lon="-149.55119">
        <ele>186.633179</ele>
        <time>2012-05-08T19:11:39Z</time>
      </trkpt>
      <trkpt lat="-17.55682" lon="-149.55122">
        <ele>187.11377</ele>
        <time>2012-05-08T19:11:44Z</time>
      </trkpt>
      <trkpt lat="-17.55677" lon="-149.5513">
        <ele>189.036377</ele>
        <time>2012-05-08T19:11:55Z</time>
      </trkpt>
      <trkpt lat="-17.55666" lon="-149.55133">
        <ele>192.401123</ele>
        <time>2012-05-08T19:12:10Z</time>
      </trkpt>
      <trkpt lat="-17.55655" lon="-149.5513">
        <ele>195.765625</ele>
        <time>2012-05-08T19:12:25Z</time>
      </trkpt>
      <trkpt lat="-17.55643" lon="-149.5513">
        <ele>198.168945</ele>
        <time>2012-05-08T19:12:42Z</time>
      </trkpt>
      <trkpt lat="-17.55636" lon="-149.55132">
        <ele>200.572266</ele>
        <time>2012-05-08T19:12:55Z</time>
      </trkpt>
      <trkpt lat="-17.55625" lon="-149.5513">
        <ele>203.93689</ele>
        <time>2012-05-08T19:13:08Z</time>
      </trkpt>
      <trkpt lat="-17.55615" lon="-149.55132">
        <ele>205.859497</ele>
        <time>2012-05-08T19:13:20Z</time>
      </trkpt>
      <trkpt lat="-17.55602" lon="-149.55139">
        <ele>208.743408</ele>
        <time>2012-05-08T19:13:35Z</time>
      </trkpt>
      <trkpt lat="-17.55587" lon="-149.55139">
        <ele>211.146729</ele>
        <time>2012-05-08T19:13:51Z</time>
      </trkpt>
      <trkpt lat="-17.55568" lon="-149.55141">
        <ele>212.108032</ele>
        <time>2012-05-08T19:14:04Z</time>
      </trkpt>
      <trkpt lat="-17.55565" lon="-149.55142">
        <ele>212.108032</ele>
        <time>2012-05-08T19:14:06Z</time>
      </trkpt>
      <trkpt lat="-17.55553" lon="-149.5515">
        <ele>214.03064</ele>
        <time>2012-05-08T19:14:20Z</time>
      </trkpt>
      <trkpt lat="-17.55543" lon="-149.55155">
        <ele>214.991943</ele>
        <time>2012-05-08T19:14:31Z</time>
      </trkpt>
      <trkpt lat="-17.55532" lon="-149.55174">
        <ele>217.395386</ele>
        <time>2012-05-08T19:14:47Z</time>
      </trkpt>
      <trkpt lat="-17.55525" lon="-149.55185">
        <ele>220.759888</ele>
        <time>2012-05-08T19:15:01Z</time>
      </trkpt>
      <trkpt lat="-17.55522" lon="-149.55192">
        <ele>224.124512</ele>
        <time>2012-05-08T19:15:09Z</time>
      </trkpt>
      <trkpt lat="-17.55521" lon="-149.55195">
        <ele>225.085938</ele>
        <time>2012-05-08T19:15:12Z</time>
      </trkpt>
      <trkpt lat="-17.55518" lon="-149.55201">
        <ele>226.047119</ele>
        <time>2012-05-08T19:15:17Z</time>
      </trkpt>
      <trkpt lat="-17.5551" lon="-149.55211">
        <ele>228.450439</ele>
        <time>2012-05-08T19:15:28Z</time>
      </trkpt>
      <trkpt lat="-17.55501" lon="-149.5522">
        <ele>230.373047</ele>
        <time>2012-05-08T19:15:40Z</time>
      </trkpt>
      <trkpt lat="-17.55492" lon="-149.55229">
        <ele>232.295776</ele>
        <time>2012-05-08T19:15:52Z</time>
      </trkpt>
      <trkpt lat="-17.55491" lon="-149.5523">
        <ele>232.776489</ele>
        <time>2012-05-08T19:15:54Z</time>
      </trkpt>
      <trkpt lat="-17.55488" lon="-149.55234">
        <ele>233.25708</ele>
        <time>2012-05-08T19:15:58Z</time>
      </trkpt>
      <trkpt lat="-17.55482" lon="-149.55238">
        <ele>235.179688</ele>
        <time>2012-05-08T19:16:05Z</time>
      </trkpt>
      <trkpt lat="-17.55481" lon="-149.5524">
        <ele>235.660278</ele>
        <time>2012-05-08T19:16:07Z</time>
      </trkpt>
      <trkpt lat="-17.55479" lon="-149.55241">
        <ele>235.179688</ele>
        <time>2012-05-08T19:16:09Z</time>
      </trkpt>
      <trkpt lat="-17.55477" lon="-149.55243">
        <ele>235.179688</ele>
        <time>2012-05-08T19:16:11Z</time>
      </trkpt>
      <trkpt lat="-17.55461" lon="-149.55256">
        <ele>236.140991</ele>
        <time>2012-05-08T19:16:29Z</time>
      </trkpt>
      <trkpt lat="-17.55451" lon="-149.55273">
        <ele>239.024902</ele>
        <time>2012-05-08T19:16:43Z</time>
      </trkpt>
      <trkpt lat="-17.55444" lon="-149.55285">
        <ele>241.428223</ele>
        <time>2012-05-08T19:16:58Z</time>
      </trkpt>
      <trkpt lat="-17.55438" lon="-149.55295">
        <ele>243.831543</ele>
        <time>2012-05-08T19:17:08Z</time>
      </trkpt>
      <trkpt lat="-17.55435" lon="-149.55307">
        <ele>244.312256</ele>
        <time>2012-05-08T19:17:14Z</time>
      </trkpt>
      <trkpt lat="-17.55423" lon="-149.55314">
        <ele>245.75415</ele>
        <time>2012-05-08T19:17:28Z</time>
      </trkpt>
      <trkpt lat="-17.5541" lon="-149.55326">
        <ele>247.676758</ele>
        <time>2012-05-08T19:17:42Z</time>
      </trkpt>
      <trkpt lat="-17.55397" lon="-149.55339">
        <ele>247.196045</ele>
        <time>2012-05-08T19:17:55Z</time>
      </trkpt>
      <trkpt lat="-17.55378" lon="-149.55335">
        <ele>247.196045</ele>
        <time>2012-05-08T19:18:12Z</time>
      </trkpt>
      <trkpt lat="-17.55363" lon="-149.55332">
        <ele>247.676758</ele>
        <time>2012-05-08T19:18:27Z</time>
      </trkpt>
      <trkpt lat="-17.55358" lon="-149.55331">
        <ele>247.196045</ele>
        <time>2012-05-08T19:18:31Z</time>
      </trkpt>
      <trkpt lat="-17.55343" lon="-149.55334">
        <ele>246.715454</ele>
        <time>2012-05-08T19:18:46Z</time>
      </trkpt>
      <trkpt lat="-17.55333" lon="-149.55331">
        <ele>246.234863</ele>
        <time>2012-05-08T19:19:00Z</time>
      </trkpt>
      <trkpt lat="-17.55333" lon="-149.55334">
        <ele>245.75415</ele>
        <time>2012-05-08T19:19:10Z</time>
      </trkpt>
      <trkpt lat="-17.55332" lon="-149.55347">
        <ele>243.35083</ele>
        <time>2012-05-08T19:19:25Z</time>
      </trkpt>
      <trkpt lat="-17.55333" lon="-149.55349">
        <ele>243.831543</ele>
        <time>2012-05-08T19:19:42Z</time>
      </trkpt>
      <trkpt lat="-17.55317" lon="-149.55357">
        <ele>240.947632</ele>
        <time>2012-05-08T19:19:59Z</time>
      </trkpt>
      <trkpt lat="-17.55316" lon="-149.55358">
        <ele>240.467041</ele>
        <time>2012-05-08T19:20:01Z</time>
      </trkpt>
      <trkpt lat="-17.55306" lon="-149.55359">
        <ele>238.544312</ele>
        <time>2012-05-08T19:20:19Z</time>
      </trkpt>
      <trkpt lat="-17.55303" lon="-149.55358">
        <ele>238.063599</ele>
        <time>2012-05-08T19:20:54Z</time>
      </trkpt>
      <trkpt lat="-17.55303" lon="-149.55361">
        <ele>239.024902</ele>
        <time>2012-05-08T19:22:04Z</time>
      </trkpt>
      <trkpt lat="-17.55308" lon="-149.55373">
        <ele>236.621704</ele>
        <time>2012-05-08T19:22:22Z</time>
      </trkpt>
      <trkpt lat="-17.55308" lon="-149.55373">
        <ele>236.140991</ele>
        <time>2012-05-08T19:22:23Z</time>
      </trkpt>
      <trkpt lat="-17.55311" lon="-149.5538">
        <ele>234.218384</ele>
        <time>2012-05-08T19:22:31Z</time>
      </trkpt>
      <trkpt lat="-17.55299" lon="-149.55383">
        <ele>232.776489</ele>
        <time>2012-05-08T19:22:46Z</time>
      </trkpt>
      <trkpt lat="-17.55282" lon="-149.5538">
        <ele>229.411743</ele>
        <time>2012-05-08T19:23:06Z</time>
      </trkpt>
      <trkpt lat="-17.55271" lon="-149.55379">
        <ele>226.527832</ele>
        <time>2012-05-08T19:23:19Z</time>
      </trkpt>
      <trkpt lat="-17.55255" lon="-149.55378">
        <ele>223.163208</ele>
        <time>2012-05-08T19:23:39Z</time>
      </trkpt>
      <trkpt lat="-17.55252" lon="-149.55379">
        <ele>222.682495</ele>
        <time>2012-05-08T19:23:44Z</time>
      </trkpt>
      <trkpt lat="-17.5524" lon="-149.55384">
        <ele>219.317993</ele>
        <time>2012-05-08T19:23:59Z</time>
      </trkpt>
      <trkpt lat="-17.55228" lon="-149.55389">
        <ele>216.43396</ele>
        <time>2012-05-08T19:24:16Z</time>
      </trkpt>
      <trkpt lat="-17.5521" lon="-149.55396">
        <ele>213.550049</ele>
        <time>2012-05-08T19:24:34Z</time>
      </trkpt>
      <trkpt lat="-17.55194" lon="-149.55409">
        <ele>211.627441</ele>
        <time>2012-05-08T19:24:52Z</time>
      </trkpt>
      <trkpt lat="-17.55179" lon="-149.55421">
        <ele>210.185425</ele>
        <time>2012-05-08T19:25:09Z</time>
      </trkpt>
      <trkpt lat="-17.55166" lon="-149.55434">
        <ele>207.782104</ele>
        <time>2012-05-08T19:25:26Z</time>
      </trkpt>
      <trkpt lat="-17.55149" lon="-149.55445">
        <ele>205.859497</ele>
        <time>2012-05-08T19:25:44Z</time>
      </trkpt>
      <trkpt lat="-17.55134" lon="-149.55458">
        <ele>203.93689</ele>
        <time>2012-05-08T19:26:01Z</time>
      </trkpt>
      <trkpt lat="-17.55126" lon="-149.55462">
        <ele>203.456177</ele>
        <time>2012-05-08T19:26:10Z</time>
      </trkpt>
      <trkpt lat="-17.55124" lon="-149.55466">
        <ele>202.975464</ele>
        <time>2012-05-08T19:26:14Z</time>
      </trkpt>
      <trkpt lat="-17.55129" lon="-149.55476">
        <ele>201.052856</ele>
        <time>2012-05-08T19:26:24Z</time>
      </trkpt>
      <trkpt lat="-17.55136" lon="-149.55475">
        <ele>200.572266</ele>
        <time>2012-05-08T19:26:32Z</time>
      </trkpt>
      <trkpt lat="-17.55144" lon="-149.5547">
        <ele>199.61084</ele>
        <time>2012-05-08T19:26:50Z</time>
      </trkpt>
      <trkpt lat="-17.55154" lon="-149.5546">
        <ele>196.726929</ele>
        <time>2012-05-08T19:27:05Z</time>
      </trkpt>
      <trkpt lat="-17.55158" lon="-149.55455">
        <ele>195.284912</ele>
        <time>2012-05-08T19:27:10Z</time>
      </trkpt>
      <trkpt lat="-17.55161" lon="-149.55451">
        <ele>194.804321</ele>
        <time>2012-05-08T19:27:15Z</time>
      </trkpt>
      <trkpt lat="-17.55169" lon="-149.55447">
        <ele>193.843018</ele>
        <time>2012-05-08T19:27:24Z</time>
      </trkpt>
      <trkpt lat="-17.55175" lon="-149.55451">
        <ele>191.920288</ele>
        <time>2012-05-08T19:27:30Z</time>
      </trkpt>
      <trkpt lat="-17.55173" lon="-149.55461">
        <ele>190.958984</ele>
        <time>2012-05-08T19:27:43Z</time>
      </trkpt>
      <trkpt lat="-17.55171" lon="-149.55461">
        <ele>190.958984</ele>
        <time>2012-05-08T19:27:45Z</time>
      </trkpt>
      <trkpt lat="-17.55166" lon="-149.55462">
        <ele>189.036377</ele>
        <time>2012-05-08T19:27:51Z</time>
      </trkpt>
      <trkpt lat="-17.55156" lon="-149.55476">
        <ele>185.671753</ele>
        <time>2012-05-08T19:28:06Z</time>
      </trkpt>
      <trkpt lat="-17.55145" lon="-149.55487">
        <ele>183.268433</ele>
        <time>2012-05-08T19:28:22Z</time>
      </trkpt>
      <trkpt lat="-17.55135" lon="-149.55493">
        <ele>182.787842</ele>
        <time>2012-05-08T19:28:34Z</time>
      </trkpt>
      <trkpt lat="-17.55126" lon="-149.55499">
        <ele>180.865234</ele>
        <time>2012-05-08T19:28:46Z</time>
      </trkpt>
      <trkpt lat="-17.55112" lon="-149.55506">
        <ele>178.461914</ele>
        <time>2012-05-08T19:29:05Z</time>
      </trkpt>
      <trkpt lat="-17.55096" lon="-149.55509">
        <ele>175.577881</ele>
        <time>2012-05-08T19:29:23Z</time>
      </trkpt>
      <trkpt lat="-17.5508" lon="-149.5551">
        <ele>172.69397</ele>
        <time>2012-05-08T19:29:38Z</time>
      </trkpt>
      <trkpt lat="-17.55064" lon="-149.55507">
        <ele>170.771362</ele>
        <time>2012-05-08T19:29:55Z</time>
      </trkpt>
      <trkpt lat="-17.55052" lon="-149.55507">
        <ele>167.406738</ele>
        <time>2012-05-08T19:30:07Z</time>
      </trkpt>
      <trkpt lat="-17.55047" lon="-149.55508">
        <ele>166.926025</ele>
        <time>2012-05-08T19:30:11Z</time>
      </trkpt>
      <trkpt lat="-17.55033" lon="-149.55515">
        <ele>165.964722</ele>
        <time>2012-05-08T19:30:24Z</time>
      </trkpt>
      <trkpt lat="-17.55031" lon="-149.55515">
        <ele>164.522705</ele>
        <time>2012-05-08T19:30:26Z</time>
      </trkpt>
      <trkpt lat="-17.55016" lon="-149.55524">
        <ele>162.600098</ele>
        <time>2012-05-08T19:30:42Z</time>
      </trkpt>
      <trkpt lat="-17.55002" lon="-149.55532">
        <ele>161.638916</ele>
        <time>2012-05-08T19:30:59Z</time>
      </trkpt>
      <trkpt lat="-17.54995" lon="-149.5554">
        <ele>160.196899</ele>
        <time>2012-05-08T19:31:08Z</time>
      </trkpt>
      <trkpt lat="-17.54987" lon="-149.55547">
        <ele>157.793579</ele>
        <time>2012-05-08T19:31:17Z</time>
      </trkpt>
      <trkpt lat="-17.54974" lon="-149.55562">
        <ele>155.390259</ele>
        <time>2012-05-08T19:31:35Z</time>
      </trkpt>
      <trkpt lat="-17.54963" lon="-149.55572">
        <ele>153.948364</ele>
        <time>2012-05-08T19:31:48Z</time>
      </trkpt>
      <trkpt lat="-17.54952" lon="-149.5558">
        <ele>153.467651</ele>
        <time>2012-05-08T19:32:02Z</time>
      </trkpt>
      <trkpt lat="-17.54939" lon="-149.5559">
        <ele>150.583618</ele>
        <time>2012-05-08T19:32:18Z</time>
      </trkpt>
      <trkpt lat="-17.54935" lon="-149.55595">
        <ele>150.103027</ele>
        <time>2012-05-08T19:32:23Z</time>
      </trkpt>
      <trkpt lat="-17.54925" lon="-149.55607">
        <ele>147.699707</ele>
        <time>2012-05-08T19:32:38Z</time>
      </trkpt>
      <trkpt lat="-17.54914" lon="-149.55617">
        <ele>145.296387</ele>
        <time>2012-05-08T19:32:55Z</time>
      </trkpt>
      <trkpt lat="-17.54906" lon="-149.55619">
        <ele>143.85437</ele>
        <time>2012-05-08T19:33:03Z</time>
      </trkpt>
      <trkpt lat="-17.54898" lon="-149.55616">
        <ele>142.412476</ele>
        <time>2012-05-08T19:33:12Z</time>
      </trkpt>
      <trkpt lat="-17.54892" lon="-149.55598">
        <ele>138.567261</ele>
        <time>2012-05-08T19:33:29Z</time>
      </trkpt>
      <trkpt lat="-17.5489" lon="-149.55595">
        <ele>138.567261</ele>
        <time>2012-05-08T19:33:32Z</time>
      </trkpt>
      <trkpt lat="-17.5488" lon="-149.55591">
        <ele>136.16394</ele>
        <time>2012-05-08T19:33:42Z</time>
      </trkpt>
      <trkpt lat="-17.54859" lon="-149.55591">
        <ele>133.760498</ele>
        <time>2012-05-08T19:34:00Z</time>
      </trkpt>
      <trkpt lat="-17.54841" lon="-149.55593">
        <ele>130.876709</ele>
        <time>2012-05-08T19:34:17Z</time>
      </trkpt>
      <trkpt lat="-17.54826" lon="-149.55592">
        <ele>130.876709</ele>
        <time>2012-05-08T19:34:33Z</time>
      </trkpt>
      <trkpt lat="-17.54826" lon="-149.55594">
        <ele>132.799316</ele>
        <time>2012-05-08T19:34:42Z</time>
      </trkpt>
    </trkseg>
  </trk>
</gpx>